Time;durP1;ratioP1;P1;durP2;ratioP2;P2;SDS_P1;SDS_P2;PMS_P1;PMS_P2;Temp;Humidity;BMP_temperature;BMP_pressure;BME280_temperature;BME280_humidity;BME280_pressure;Samples;Min_cycle;Max_cycle;Signal;HPM_P1;HPM_P2
2022/10/20 00:00:54;;;;;;;;;;;7.50;99.90;;;;;;4924528;29;20404;-89
2022/10/20 00:03:19;;;;;;;;;;;7.60;99.90;;;;;;4940453;29;19926;-88
2022/10/20 00:05:45;;;;;;;;;;;7.60;99.90;;;;;;4925372;29;19960;-89
2022/10/20 00:08:10;;;;;;;;;;;7.60;99.90;;;;;;4941042;29;19949;-89
2022/10/20 00:10:36;;;;;;;;;;;7.50;99.90;;;;;;4908763;29;20021;-89
2022/10/20 00:13:02;;;;;;;;;;;7.50;99.90;;;;;;4940298;29;20433;-88
2022/10/20 00:15:27;;;;;;;;;;;7.50;99.90;;;;;;4924554;29;19927;-88
2022/10/20 00:17:53;;;;;;;;;;;7.50;99.90;;;;;;4908397;29;19930;-88
2022/10/20 00:20:18;;;;;;;;;;;7.40;99.90;;;;;;4908904;29;19934;-89
2022/10/20 00:22:44;;;;;;;;;;;7.40;99.90;;;;;;4939960;29;19993;-87
2022/10/20 00:25:09;;;;;;;;;;;7.40;99.90;;;;;;4940060;29;20033;-88
2022/10/20 00:27:35;;;;;;;;;;;7.30;99.90;;;;;;4906076;29;19926;-88
2022/10/20 00:30:01;;;;;;;;;;;7.30;99.90;;;;;;4924375;29;20355;-88
2022/10/20 00:32:28;;;;;;;;;;;7.30;99.90;;;;;;4924365;29;20025;-88
2022/10/20 00:34:54;;;;;;;;;;;7.30;99.90;;;;;;4925163;29;20297;-89
2022/10/20 00:37:19;;;;;;;;;;;7.30;99.90;;;;;;4923791;29;19933;-88
2022/10/20 00:39:45;;;;;;;;;;;7.30;99.90;;;;;;4924066;29;19949;-88
2022/10/20 00:42:14;;;;;;;;;;;7.30;99.90;;;;;;4939996;29;19927;-88
2022/10/20 00:44:43;;;;;;;;;;;7.30;99.90;;;;;;4940017;29;19950;-88
2022/10/20 00:47:12;;;;;;;;;;;7.20;99.90;;;;;;4940217;29;19945;-88
2022/10/20 00:49:37;;;;;;;;;;;7.30;99.90;;;;;;4940883;29;19985;-88
2022/10/20 00:52:03;;;;;;;;;;;7.20;99.90;;;;;;4909142;29;19930;-87
2022/10/20 00:54:30;;;;;;;;;;;7.20;99.90;;;;;;4940764;29;19930;-88
2022/10/20 00:56:57;;;;;;;;;;;7.20;99.90;;;;;;4937250;29;20334;-87
2022/10/20 00:59:25;;;;;;;;;;;7.20;99.90;;;;;;4940156;29;19934;-88
2022/10/20 01:01:51;;;;;;;;;;;7.20;99.90;;;;;;4939452;29;19927;-88
2022/10/20 01:04:17;;;;;;;;;;;7.20;99.90;;;;;;4952795;29;20005;-88
2022/10/20 01:06:42;;;;;;;;;;;7.10;99.90;;;;;;4953219;29;19934;-87
2022/10/20 01:09:08;;;;;;;;;;;7.10;99.90;;;;;;4951858;29;19926;-88
2022/10/20 01:11:52;;;;;;;;;;;7.10;99.90;;;;;;4950509;29;19937;-88
2022/10/20 01:14:26;;;;;;;;;;;7.00;99.90;;;;;;4946921;29;20354;-88
2022/10/20 01:16:54;;;;;;;;;;;7.00;99.90;;;;;;4943665;29;20044;-86
2022/10/20 01:19:20;;;;;;;;;;;7.00;99.90;;;;;;4928096;29;19927;-87
2022/10/20 01:21:49;;;;;;;;;;;7.00;99.90;;;;;;4927327;29;19934;-88
2022/10/20 01:24:35;;;;;;;;;;;6.90;99.90;;;;;;4943308;29;19926;-88
2022/10/20 01:27:19;;;;;;;;;;;6.90;99.90;;;;;;4927215;29;19926;-87
2022/10/20 01:29:56;;;;;;;;;;;6.90;99.90;;;;;;4956894;29;19927;-88
2022/10/20 01:32:24;;;;;;;;;;;6.90;99.90;;;;;;4924485;29;19974;-88
2022/10/20 01:34:55;;;;;;;;;;;6.90;99.90;;;;;;4908467;29;19934;-87
2022/10/20 01:37:21;;;;;;;;;;;6.90;99.90;;;;;;4924171;29;19957;-88
2022/10/20 01:39:55;;;;;;;;;;;6.90;99.90;;;;;;4908231;29;20022;-88
2022/10/20 01:42:22;;;;;;;;;;;6.90;99.90;;;;;;4908439;29;19934;-88
2022/10/20 01:44:49;;;;;;;;;;;6.80;99.90;;;;;;4923960;29;19933;-88
2022/10/20 01:47:15;;;;;;;;;;;6.80;99.90;;;;;;4892198;29;19927;-88
2022/10/20 01:49:42;;;;;;;;;;;6.90;99.90;;;;;;4892533;29;19970;-88
2022/10/20 01:52:09;;;;;;;;;;;6.80;99.90;;;;;;4955362;29;19931;-88
2022/10/20 01:54:34;;;;;;;;;;;6.70;99.90;;;;;;4923614;29;20283;-88
2022/10/20 01:57:26;;;;;;;;;;;6.70;99.90;;;;;;4923321;29;19931;-87
2022/10/20 01:59:57;;;;;;;;;;;6.70;99.90;;;;;;4901767;29;19943;-88
2022/10/20 02:02:28;;;;;;;;;;;6.70;99.90;;;;;;4923657;29;19927;-88
2022/10/20 02:04:57;;;;;;;;;;;6.70;99.90;;;;;;4923682;29;19927;-87
2022/10/20 02:07:26;;;;;;;;;;;6.70;99.90;;;;;;4923381;29;19931;-88
2022/10/20 02:09:54;;;;;;;;;;;6.70;99.90;;;;;;4938558;29;19926;-88
2022/10/20 02:12:25;;;;;;;;;;;6.70;99.90;;;;;;4907992;29;19950;-88
2022/10/20 02:14:51;;;;;;;;;;;6.70;99.90;;;;;;4955939;29;19927;-87
2022/10/20 02:17:18;;;;;;;;;;;6.70;99.90;;;;;;4955646;29;20384;-87
2022/10/20 02:19:44;;;;;;;;;;;6.60;99.90;;;;;;4923359;29;19931;-88
2022/10/20 02:22:12;;;;;;;;;;;6.60;99.90;;;;;;4907197;29;19958;-88
2022/10/20 02:24:38;;;;;;;;;;;6.60;99.90;;;;;;4939307;29;20422;-88
2022/10/20 02:27:07;;;;;;;;;;;6.60;99.90;;;;;;4907285;29;19993;-88
2022/10/20 02:29:35;;;;;;;;;;;6.60;99.90;;;;;;4940465;29;20260;-88
2022/10/20 02:32:01;;;;;;;;;;;6.50;99.90;;;;;;4941826;29;19933;-87
2022/10/20 02:34:27;;;;;;;;;;;6.50;99.90;;;;;;4941716;29;20374;-88
2022/10/20 02:36:57;;;;;;;;;;;6.50;99.90;;;;;;4941785;29;19978;-86
2022/10/20 02:39:23;;;;;;;;;;;6.40;99.90;;;;;;4941686;29;19949;-88
2022/10/20 02:41:49;;;;;;;;;;;6.40;99.90;;;;;;4926861;29;20060;-88
2022/10/20 02:44:14;;;;;;;;;;;6.40;99.90;;;;;;4926049;29;20366;-88
2022/10/20 02:46:40;;;;;;;;;;;6.40;99.90;;;;;;4926065;29;19948;-88
2022/10/20 02:49:06;;;;;;;;;;;6.40;99.90;;;;;;4926813;29;19934;-87
2022/10/20 02:51:31;;;;;;;;;;;6.40;99.90;;;;;;4925650;29;20021;-88
2022/10/20 02:53:57;;;;;;;;;;;6.30;99.90;;;;;;4925816;29;19977;-87
2022/10/20 02:56:22;;;;;;;;;;;6.40;99.90;;;;;;4941384;29;19966;-88
2022/10/20 02:58:48;;;;;;;;;;;6.30;99.90;;;;;;4926017;29;20378;-88
2022/10/20 03:01:14;;;;;;;;;;;6.30;99.90;;;;;;4941327;29;19934;-88
2022/10/20 03:03:39;;;;;;;;;;;6.30;99.90;;;;;;4925476;29;19949;-88
2022/10/20 03:06:06;;;;;;;;;;;6.30;99.90;;;;;;4941357;29;19926;-87
2022/10/20 03:08:31;;;;;;;;;;;6.20;99.90;;;;;;4925275;29;19927;-88
2022/10/20 03:10:57;;;;;;;;;;;6.30;99.90;;;;;;4925513;29;19927;-87
2022/10/20 03:13:22;;;;;;;;;;;6.30;99.90;;;;;;4925575;29;19930;-88
2022/10/20 03:15:48;;;;;;;;;;;6.30;99.90;;;;;;4941086;29;19927;-87
2022/10/20 03:18:13;;;;;;;;;;;6.30;99.90;;;;;;4940628;29;19927;-87
2022/10/20 03:20:39;;;;;;;;;;;6.20;99.90;;;;;;4924977;29;19926;-88
2022/10/20 03:23:05;;;;;;;;;;;6.20;99.90;;;;;;4940955;29;19927;-88
2022/10/20 03:25:31;;;;;;;;;;;6.30;99.90;;;;;;4924937;29;19973;-87
2022/10/20 03:27:56;;;;;;;;;;;6.30;99.90;;;;;;4925033;29;19933;-88
2022/10/20 03:30:22;;;;;;;;;;;6.30;99.90;;;;;;4909174;29;20017;-88
2022/10/20 03:32:47;;;;;;;;;;;6.30;99.90;;;;;;4925654;29;19930;-89
2022/10/20 03:35:13;;;;;;;;;;;6.30;99.90;;;;;;4924979;29;19938;-88
2022/10/20 03:37:38;;;;;;;;;;;6.40;99.90;;;;;;4924624;29;20316;-88
2022/10/20 03:40:04;;;;;;;;;;;6.40;99.90;;;;;;4909255;29;19927;-86
2022/10/20 03:42:30;;;;;;;;;;;6.40;99.90;;;;;;4940455;29;19998;-88
2022/10/20 03:44:55;;;;;;;;;;;6.40;99.90;;;;;;4924753;29;19934;-88
2022/10/20 03:47:21;;;;;;;;;;;6.40;99.90;;;;;;4908891;29;19927;-88
2022/10/20 03:49:46;;;;;;;;;;;6.40;99.90;;;;;;4924876;29;19979;-88
2022/10/20 03:52:12;;;;;;;;;;;6.50;99.90;;;;;;4940712;29;19934;-89
2022/10/20 03:54:39;;;;;;;;;;;6.40;99.90;;;;;;4940511;29;19978;-88
2022/10/20 03:57:05;;;;;;;;;;;6.40;99.90;;;;;;4924607;29;19926;-87
2022/10/20 03:59:30;;;;;;;;;;;6.50;99.90;;;;;;4941083;29;20013;-88
2022/10/20 04:01:56;;;;;;;;;;;6.50;99.90;;;;;;4924651;29;20346;-88
2022/10/20 04:04:21;;;;;;;;;;;6.50;99.90;;;;;;4925213;29;19974;-87
2022/10/20 04:06:47;;;;;;;;;;;6.50;99.90;;;;;;4940091;29;20021;-88
2022/10/20 04:09:12;;;;;;;;;;;6.40;99.90;;;;;;4908372;29;19934;-88
2022/10/20 04:11:38;;;;;;;;;;;6.50;99.90;;;;;;4924405;29;19926;-87
2022/10/20 04:14:04;;;;;;;;;;;6.40;99.90;;;;;;4908352;29;19974;-88
2022/10/20 04:16:29;;;;;;;;;;;6.60;99.90;;;;;;4909185;29;20006;-88
2022/10/20 04:18:55;;;;;;;;;;;6.50;99.90;;;;;;4923733;29;19926;-88
2022/10/20 04:21:20;;;;;;;;;;;6.50;99.90;;;;;;4940020;29;20025;-88
2022/10/20 04:23:46;;;;;;;;;;;6.60;99.90;;;;;;4908644;29;19926;-88
2022/10/20 04:26:13;;;;;;;;;;;6.50;99.90;;;;;;4924073;29;20319;-87
2022/10/20 04:28:39;;;;;;;;;;;6.50;99.90;;;;;;4939383;29;20017;-88
2022/10/20 04:31:05;;;;;;;;;;;6.50;99.90;;;;;;4939294;28;20123;-88
2022/10/20 04:33:31;;;;;;;;;;;6.50;99.90;;;;;;4923542;29;19927;-88
2022/10/20 04:35:57;;;;;;;;;;;6.50;99.90;;;;;;4939803;29;19927;-88
2022/10/20 04:38:23;;;;;;;;;;;6.50;99.90;;;;;;4923476;29;20393;-87
2022/10/20 04:40:55;;;;;;;;;;;6.40;99.90;;;;;;4924179;29;19926;-87
2022/10/20 04:43:21;;;;;;;;;;;6.50;99.90;;;;;;4923939;29;19954;-87
2022/10/20 04:45:46;;;;;;;;;;;6.50;99.90;;;;;;4924194;29;20017;-88
2022/10/20 04:48:12;;;;;;;;;;;6.50;99.90;;;;;;4924642;29;19933;-88
2022/10/20 04:50:38;;;;;;;;;;;6.50;99.90;;;;;;4923737;29;19926;-88
2022/10/20 04:53:03;;;;;;;;;;;6.50;99.90;;;;;;4939441;29;20025;-88
2022/10/20 04:55:29;;;;;;;;;;;6.50;99.90;;;;;;4924369;29;19926;-88
2022/10/20 04:57:54;;;;;;;;;;;6.50;99.90;;;;;;4923359;29;19926;-87
2022/10/20 05:00:20;;;;;;;;;;;6.50;99.90;;;;;;4924297;29;20275;-87
2022/10/20 05:02:45;;;;;;;;;;;6.40;99.90;;;;;;4940291;29;20469;-88
2022/10/20 05:05:11;;;;;;;;;;;6.50;99.90;;;;;;4939515;29;19981;-88
2022/10/20 05:07:37;;;;;;;;;;;6.50;99.90;;;;;;4924186;29;19927;-87
2022/10/20 05:10:02;;;;;;;;;;;6.40;99.90;;;;;;4923190;29;19927;-88
2022/10/20 05:12:28;;;;;;;;;;;6.40;99.90;;;;;;4923425;29;19934;-87
2022/10/20 05:14:54;;;;;;;;;;;6.40;99.90;;;;;;4907877;29;19930;-87
2022/10/20 05:17:19;;;;;;;;;;;6.40;99.90;;;;;;4923137;29;19933;-87
2022/10/20 05:19:45;;;;;;;;;;;6.40;99.90;;;;;;4923647;29;19926;-88
2022/10/20 05:22:10;;;;;;;;;;;6.40;99.90;;;;;;4907725;29;19934;-89
2022/10/20 05:24:36;;;;;;;;;;;6.50;99.90;;;;;;4924081;29;19926;-89
2022/10/20 05:27:01;;;;;;;;;;;6.40;99.90;;;;;;4907761;29;19926;-88
2022/10/20 05:29:27;;;;;;;;;;;6.40;99.90;;;;;;4920556;29;20025;-88
2022/10/20 05:31:53;;;;;;;;;;;6.40;99.90;;;;;;4923358;29;20359;-88
2022/10/20 05:34:18;;;;;;;;;;;6.40;99.90;;;;;;4923547;29;20277;-88
2022/10/20 05:36:44;;;;;;;;;;;6.40;99.90;;;;;;4923325;29;19926;-87
2022/10/20 05:39:10;;;;;;;;;;;6.40;99.90;;;;;;4939074;29;19992;-87
2022/10/20 05:41:35;;;;;;;;;;;6.40;99.90;;;;;;4923095;29;20255;-87
2022/10/20 05:44:03;;;;;;;;;;;6.40;99.90;;;;;;4909663;29;19927;-88
2022/10/20 05:46:30;;;;;;;;;;;6.40;99.90;;;;;;4942409;29;20255;-86
2022/10/20 05:48:57;;;;;;;;;;;6.40;99.90;;;;;;4927072;29;19927;-89
2022/10/20 05:51:24;;;;;;;;;;;6.40;99.90;;;;;;4943132;29;20262;-90
2022/10/20 05:53:50;;;;;;;;;;;6.40;99.90;;;;;;4942466;29;19937;-91
2022/10/20 05:56:17;;;;;;;;;;;6.40;99.90;;;;;;4942391;29;20386;-88
2022/10/20 05:58:43;;;;;;;;;;;6.40;99.90;;;;;;4926174;29;19926;-91
2022/10/20 06:01:18;;;;;;;;;;;6.40;99.90;;;;;;4926857;29;19933;-89
2022/10/20 06:04:01;;;;;;;;;;;6.40;99.90;;;;;;4942775;29;19937;-88
2022/10/20 06:06:28;;;;;;;;;;;6.40;99.90;;;;;;4942477;29;19926;-90
2022/10/20 06:08:54;;;;;;;;;;;6.40;99.90;;;;;;4927023;29;19937;-89
2022/10/20 06:11:21;;;;;;;;;;;6.40;99.90;;;;;;4926264;29;20287;-88
2022/10/20 06:13:46;;;;;;;;;;;6.40;99.90;;;;;;4943127;29;20351;-88
2022/10/20 06:16:13;;;;;;;;;;;6.40;99.90;;;;;;4926039;29;19977;-88
2022/10/20 06:18:39;;;;;;;;;;;6.50;99.90;;;;;;4941538;29;20030;-84
2022/10/20 06:21:06;;;;;;;;;;;6.50;99.90;;;;;;4941505;29;19933;-86
2022/10/20 06:23:31;;;;;;;;;;;6.50;99.90;;;;;;4941281;29;19978;-81
2022/10/20 06:26:01;;;;;;;;;;;6.50;99.90;;;;;;4910953;29;19934;-88
2022/10/20 06:28:28;;;;;;;;;;;6.50;99.90;;;;;;4939655;29;20303;-88
2022/10/20 06:30:53;;;;;;;;;;;6.50;99.90;;;;;;4941840;29;19930;-88
2022/10/20 06:33:19;;;;;;;;;;;6.50;99.90;;;;;;4910252;29;20422;-88
2022/10/20 06:35:45;;;;;;;;;;;6.50;99.90;;;;;;4941849;29;20013;-88
2022/10/20 06:38:10;;;;;;;;;;;6.50;99.90;;;;;;4941211;29;19926;-88
2022/10/20 06:40:36;;;;;;;;;;;6.50;99.90;;;;;;4941732;29;19926;-88
2022/10/20 06:43:01;;;;;;;;;;;6.60;99.90;;;;;;4925861;29;20073;-89
2022/10/20 06:45:27;;;;;;;;;;;6.60;99.90;;;;;;4941570;29;19926;-87
2022/10/20 06:47:52;;;;;;;;;;;6.60;99.90;;;;;;4910208;29;20112;-88
2022/10/20 06:50:18;;;;;;;;;;;6.60;99.90;;;;;;4925979;29;19927;-88
2022/10/20 06:52:43;;;;;;;;;;;6.60;99.90;;;;;;4925440;29;19927;-88
2022/10/20 06:55:09;;;;;;;;;;;6.70;99.90;;;;;;4925867;29;20093;-88
2022/10/20 06:57:35;;;;;;;;;;;6.70;99.90;;;;;;4910053;29;19927;-87
2022/10/20 07:00:00;;;;;;;;;;;6.80;99.90;;;;;;4925767;29;20021;-88
2022/10/20 07:02:26;;;;;;;;;;;6.80;99.90;;;;;;4925409;29;20373;-88
2022/10/20 07:04:51;;;;;;;;;;;6.80;99.90;;;;;;4941483;29;19934;-88
2022/10/20 07:07:17;;;;;;;;;;;6.80;99.90;;;;;;4941489;29;19926;-88
2022/10/20 07:09:42;;;;;;;;;;;6.90;99.90;;;;;;4910314;29;20107;-88
2022/10/20 07:12:08;;;;;;;;;;;6.80;99.90;;;;;;4943114;29;19926;-88
2022/10/20 07:14:36;;;;;;;;;;;7.00;99.90;;;;;;4929021;29;19930;-87
2022/10/20 07:17:02;;;;;;;;;;;7.00;99.90;;;;;;4928599;29;19926;-87
2022/10/20 07:19:28;;;;;;;;;;;7.00;99.90;;;;;;4927353;29;20358;-88
2022/10/20 07:21:53;;;;;;;;;;;7.00;99.90;;;;;;4942925;29;20040;-87
2022/10/20 07:24:19;;;;;;;;;;;7.10;99.90;;;;;;4926151;29;20400;-88
2022/10/20 07:26:44;;;;;;;;;;;7.20;99.90;;;;;;4910433;29;19933;-88
2022/10/20 07:29:10;;;;;;;;;;;7.20;99.90;;;;;;4905735;29;20278;-88
2022/10/20 07:31:38;;;;;;;;;;;7.30;99.90;;;;;;4941375;29;19977;-87
2022/10/20 07:34:05;;;;;;;;;;;7.30;99.90;;;;;;4924843;29;20414;-88
2022/10/20 07:36:32;;;;;;;;;;;7.30;99.90;;;;;;4925231;29;19922;-88
2022/10/20 07:38:58;;;;;;;;;;;7.30;99.90;;;;;;4941060;29;19923;-88
2022/10/20 07:41:24;;;;;;;;;;;7.40;99.90;;;;;;4941603;29;20306;-88
2022/10/20 07:43:50;;;;;;;;;;;7.40;99.90;;;;;;4940493;29;19926;-88
2022/10/20 07:46:16;;;;;;;;;;;7.40;99.90;;;;;;4924911;29;19922;-88
2022/10/20 07:48:42;;;;;;;;;;;7.50;99.90;;;;;;4940456;29;20370;-88
2022/10/20 07:51:13;;;;;;;;;;;7.50;99.90;;;;;;4909699;29;19922;-88
2022/10/20 07:53:39;;;;;;;;;;;7.50;99.90;;;;;;4940297;29;20386;-88
2022/10/20 07:56:05;;;;;;;;;;;7.60;99.90;;;;;;4924562;29;19930;-88
2022/10/20 07:58:30;;;;;;;;;;;7.60;99.90;;;;;;4925229;29;19923;-88
2022/10/20 08:00:56;;;;;;;;;;;7.70;99.90;;;;;;4941171;29;20020;-89
2022/10/20 08:03:21;;;;;;;;;;;7.70;99.90;;;;;;4925298;29;19922;-88
2022/10/20 08:05:47;;;;;;;;;;;7.70;99.90;;;;;;4925236;28;20020;-88
2022/10/20 08:08:12;;;;;;;;;;;7.80;99.90;;;;;;4941029;29;19922;-88
2022/10/20 08:10:38;;;;;;;;;;;7.80;99.90;;;;;;4924335;29;19923;-86
2022/10/20 08:13:03;;;;;;;;;;;7.80;99.90;;;;;;4924692;29;19926;-88
2022/10/20 08:15:29;;;;;;;;;;;7.80;99.90;;;;;;4940158;29;19998;-89
2022/10/20 08:17:54;;;;;;;;;;;7.90;99.90;;;;;;4940582;29;19938;-88
2022/10/20 08:20:20;;;;;;;;;;;8.00;99.90;;;;;;4940033;29;20426;-88
2022/10/20 08:22:46;;;;;;;;;;;8.00;99.90;;;;;;4924946;29;19933;-88
2022/10/20 08:25:15;;;;;;;;;;;8.10;99.90;;;;;;4939843;29;20373;-89
2022/10/20 08:27:41;;;;;;;;;;;8.20;99.90;;;;;;4924776;29;19927;-87
2022/10/20 08:30:06;;;;;;;;;;;8.20;99.90;;;;;;4923558;29;19927;-88
2022/10/20 08:32:32;;;;;;;;;;;8.20;99.90;;;;;;4908536;29;20057;-86
2022/10/20 08:34:58;;;;;;;;;;;8.30;99.90;;;;;;4939591;29;19974;-88
2022/10/20 08:37:23;;;;;;;;;;;8.40;99.90;;;;;;4923712;29;19930;-88
2022/10/20 08:39:49;;;;;;;;;;;8.40;99.90;;;;;;4923570;29;20328;-92
2022/10/20 08:42:15;;;;;;;;;;;8.40;99.90;;;;;;4939366;29;19926;-86
2022/10/20 08:44:43;;;;;;;;;;;8.50;99.90;;;;;;4923044;29;20070;-85
2022/10/20 08:47:15;;;;;;;;;;;8.60;99.90;;;;;;4922710;29;19927;-83
2022/10/20 08:49:43;;;;;;;;;;;8.70;99.90;;;;;;4939056;29;19933;-84
2022/10/20 08:52:11;;;;;;;;;;;8.70;99.90;;;;;;4923544;29;19926;-87
2022/10/20 08:54:37;;;;;;;;;;;8.80;99.90;;;;;;4923348;29;20387;-87
2022/10/20 08:57:04;;;;;;;;;;;8.80;99.90;;;;;;4923685;29;19931;-87
2022/10/20 08:59:34;;;;;;;;;;;8.90;99.90;;;;;;4923440;29;19926;-88
2022/10/20 09:02:01;;;;;;;;;;;9.00;99.90;;;;;;4923571;29;19933;-87
2022/10/20 09:04:32;;;;;;;;;;;9.20;99.90;;;;;;4939511;29;19974;-88
2022/10/20 09:06:59;;;;;;;;;;;9.20;99.90;;;;;;4940316;29;19926;-88
2022/10/20 09:09:27;;;;;;;;;;;9.40;99.90;;;;;;4923845;29;20286;-89
2022/10/20 09:11:55;;;;;;;;;;;9.50;99.90;;;;;;4939557;29;19934;-89
2022/10/20 09:14:20;;;;;;;;;;;9.50;99.90;;;;;;4923825;29;19933;-88
2022/10/20 09:16:46;;;;;;;;;;;9.70;99.90;;;;;;4908744;29;19927;-88
2022/10/20 09:19:20;;;;;;;;;;;9.80;99.90;;;;;;4926316;29;19926;-89
2022/10/20 09:21:47;;;;;;;;;;;9.90;99.90;;;;;;4927389;29;19949;-88
2022/10/20 09:24:13;;;;;;;;;;;9.90;99.90;;;;;;4943082;29;19926;-88
2022/10/20 09:26:45;;;;;;;;;;;10.00;99.90;;;;;;4927002;29;19930;-87
2022/10/20 09:29:11;;;;;;;;;;;10.00;99.90;;;;;;4927433;29;20013;-87
2022/10/20 09:31:38;;;;;;;;;;;10.00;99.90;;;;;;4943585;29;20377;-87
2022/10/20 09:34:22;;;;;;;;;;;10.00;99.90;;;;;;4927238;29;19981;-87
2022/10/20 09:36:48;;;;;;;;;;;10.10;99.90;;;;;;4926874;29;19991;-86
2022/10/20 09:39:19;;;;;;;;;;;10.20;99.90;;;;;;4927301;29;19930;-87
2022/10/20 09:41:44;;;;;;;;;;;10.20;99.90;;;;;;4927058;29;19953;-87
2022/10/20 09:44:16;;;;;;;;;;;10.20;99.90;;;;;;4911149;29;20374;-87
2022/10/20 09:46:47;;;;;;;;;;;10.20;99.90;;;;;;4927096;29;19926;-87
2022/10/20 09:49:28;;;;;;;;;;;10.30;99.90;;;;;;4943536;29;19926;-87
2022/10/20 09:51:54;;;;;;;;;;;10.30;99.90;;;;;;4928350;29;20315;-87
2022/10/20 09:54:21;;;;;;;;;;;10.40;99.90;;;;;;4942836;29;19942;-86
2022/10/20 09:56:48;;;;;;;;;;;10.50;99.90;;;;;;4927082;29;20318;-88
2022/10/20 09:59:23;;;;;;;;;;;10.50;99.90;;;;;;4927063;29;19937;-88
2022/10/20 10:01:57;;;;;;;;;;;10.60;99.90;;;;;;4926838;29;19927;-86
2022/10/20 10:04:32;;;;;;;;;;;10.70;99.90;;;;;;4926674;29;19926;-89
2022/10/20 10:06:57;;;;;;;;;;;10.80;99.90;;;;;;4927109;29;20306;-91
2022/10/20 10:09:36;;;;;;;;;;;11.00;99.90;;;;;;4911269;29;19937;-87
2022/10/20 10:12:11;;;;;;;;;;;11.20;99.90;;;;;;4926795;29;19926;-87
2022/10/20 10:14:50;;;;;;;;;;;11.30;99.90;;;;;;4926599;29;19926;-88
2022/10/20 10:17:28;;;;;;;;;;;11.40;99.90;;;;;;4943204;29;19974;-88
2022/10/20 10:19:53;;;;;;;;;;;11.50;99.90;;;;;;4942298;29;20025;-87
2022/10/20 10:22:19;;;;;;;;;;;11.70;99.90;;;;;;4926790;29;20021;-87
2022/10/20 10:24:46;;;;;;;;;;;11.70;99.90;;;;;;4926336;29;19927;-88
2022/10/20 10:27:25;;;;;;;;;;;11.80;99.90;;;;;;4942332;29;19935;-89
2022/10/20 10:29:51;;;;;;;;;;;11.80;99.90;;;;;;4922705;29;19927;-88
2022/10/20 10:32:18;;;;;;;;;;;11.90;99.90;;;;;;4926618;29;19933;-81
2022/10/20 10:34:55;;;;;;;;;;;12.00;99.90;;;;;;4925630;29;19935;-78
2022/10/20 10:37:21;;;;;;;;;;;12.00;99.90;;;;;;4941337;29;19926;-82
2022/10/20 10:39:47;;;;;;;;;;;11.90;99.90;;;;;;4941174;29;19946;-88
2022/10/20 10:42:12;;;;;;;;;;;12.00;99.90;;;;;;4925316;29;19926;-83
2022/10/20 10:44:44;;;;;;;;;;;12.10;99.90;;;;;;4941127;29;20326;-82
2022/10/20 10:47:42;;;;;;;;;;;12.10;99.90;;;;;;4925114;29;19993;-83
2022/10/20 10:50:23;;;;;;;;;;;12.30;99.90;;;;;;4893918;29;19984;-83
2022/10/20 10:52:55;;;;;;;;;;;12.40;99.90;;;;;;4940940;29;19927;-82
2022/10/20 10:55:25;;;;;;;;;;;12.40;99.90;;;;;;4925105;29;20012;-81
2022/10/20 10:57:56;;;;;;;;;;;12.50;99.90;;;;;;4941323;29;20255;-83
2022/10/20 11:00:48;;;;;;;;;;;12.50;99.90;;;;;;4925793;29;19977;-83
2022/10/20 11:03:32;;;;;;;;;;;12.50;99.90;;;;;;4902723;29;19931;-84
2022/10/20 11:06:03;;;;;;;;;;;12.50;99.90;;;;;;4941000;29;19927;-80
2022/10/20 11:08:32;;;;;;;;;;;12.50;99.90;;;;;;4925076;29;20038;-86
2022/10/20 11:10:58;;;;;;;;;;;12.50;99.90;;;;;;4941014;29;19949;-86
2022/10/20 11:13:28;;;;;;;;;;;12.50;99.90;;;;;;4924652;29;19930;-86
2022/10/20 11:15:54;;;;;;;;;;;12.50;99.90;;;;;;4940957;29;19937;-85
2022/10/20 11:18:39;;;;;;;;;;;12.40;99.90;;;;;;4940292;29;19927;-87
2022/10/20 11:21:05;;;;;;;;;;;12.40;99.90;;;;;;4925691;29;19926;-86
2022/10/20 11:23:49;;;;;;;;;;;12.40;99.90;;;;;;4924577;29;19926;-86
2022/10/20 11:26:32;;;;;;;;;;;12.40;99.90;;;;;;4940473;29;19973;-86
2022/10/20 11:28:58;;;;;;;;;;;12.40;99.90;;;;;;4940036;29;19926;-86
2022/10/20 11:31:35;;;;;;;;;;;12.40;99.90;;;;;;4924726;29;19931;-86
2022/10/20 11:34:10;;;;;;;;;;;12.50;99.90;;;;;;4924633;29;20370;-86
2022/10/20 11:36:44;;;;;;;;;;;12.50;99.90;;;;;;4924411;29;19930;-86
2022/10/20 11:39:29;;;;;;;;;;;12.60;99.90;;;;;;4939730;29;19927;-85
2022/10/20 11:41:59;;;;;;;;;;;12.60;99.90;;;;;;4923404;29;19926;-86
2022/10/20 11:44:40;;;;;;;;;;;12.60;99.90;;;;;;4940282;29;19926;-86
2022/10/20 11:47:15;;;;;;;;;;;12.50;99.90;;;;;;4924107;29;19977;-86
2022/10/20 11:49:41;;;;;;;;;;;12.60;99.90;;;;;;4924206;29;20349;-87
2022/10/20 11:52:15;;;;;;;;;;;12.60;99.90;;;;;;4924619;29;19965;-88
2022/10/20 11:55:00;;;;;;;;;;;12.60;99.90;;;;;;4940270;29;20334;-88
2022/10/20 11:57:32;;;;;;;;;;;12.50;99.90;;;;;;4940764;29;19989;-86
2022/10/20 12:00:02;;;;;;;;;;;12.50;99.90;;;;;;4940470;29;19930;-87
2022/10/20 12:02:46;;;;;;;;;;;12.50;99.90;;;;;;4924618;29;19926;-87
2022/10/20 12:05:15;;;;;;;;;;;12.50;99.90;;;;;;4923962;29;20021;-92
2022/10/20 12:08:00;;;;;;;;;;;12.50;99.90;;;;;;4924688;29;19927;-91
2022/10/20 12:10:31;;;;;;;;;;;12.50;99.90;;;;;;4924599;29;19957;-92
2022/10/20 12:13:02;;;;;;;;;;;12.40;99.90;;;;;;4924727;29;19933;-91
2022/10/20 12:15:27;;;;;;;;;;;12.40;99.90;;;;;;4940410;29;20020;-91
2022/10/20 12:17:54;;;;;;;;;;;12.50;99.90;;;;;;4941074;29;20037;-89
2022/10/20 12:20:20;;;;;;;;;;;12.40;99.90;;;;;;4924841;29;20434;-91
2022/10/20 12:22:48;;;;;;;;;;;12.40;99.90;;;;;;4924635;29;19969;-94
2022/10/20 12:25:20;;;;;;;;;;;12.40;99.90;;;;;;4940422;29;20429;-92
2022/10/20 12:28:06;;;;;;;;;;;12.40;99.90;;;;;;4924292;29;19926;-92
2022/10/20 12:30:38;;;;;;;;;;;12.40;99.90;;;;;;4939151;29;20298;-91
2022/10/20 12:33:15;;;;;;;;;;;12.30;99.90;;;;;;4924724;29;19930;-90
2022/10/20 12:36:00;;;;;;;;;;;12.30;99.90;;;;;;4924273;29;20279;-89
2022/10/20 12:38:26;;;;;;;;;;;12.20;99.90;;;;;;4940108;29;19933;-89
2022/10/20 12:40:56;;;;;;;;;;;12.20;99.90;;;;;;4908434;29;20422;-88
2022/10/20 12:43:27;;;;;;;;;;;12.20;99.90;;;;;;4940176;29;19976;-92
2022/10/20 12:45:56;;;;;;;;;;;12.10;99.90;;;;;;4940683;29;20339;-90
2022/10/20 12:48:22;;;;;;;;;;;12.10;99.90;;;;;;4924167;29;19974;-88
2022/10/20 12:50:49;;;;;;;;;;;12.20;99.90;;;;;;4940759;29;19930;-92
2022/10/20 12:53:21;;;;;;;;;;;12.10;99.90;;;;;;4923466;29;20426;-93
2022/10/20 12:55:54;;;;;;;;;;;12.10;99.90;;;;;;4940070;29;19930;-88
2022/10/20 12:58:20;;;;;;;;;;;12.00;99.90;;;;;;4923960;29;19973;-92
2022/10/20 13:00:46;;;;;;;;;;;12.00;99.90;;;;;;4924072;29;20378;-89
2022/10/20 13:03:30;;;;;;;;;;;12.00;99.90;;;;;;4924822;29;19927;-90
2022/10/20 13:05:57;;;;;;;;;;;11.90;99.90;;;;;;4939804;29;20441;-89
2022/10/20 13:08:24;;;;;;;;;;;11.90;99.90;;;;;;4923588;29;20017;-89
2022/10/20 13:10:52;;;;;;;;;;;11.80;99.90;;;;;;4940046;29;19926;-89
2022/10/20 13:13:18;;;;;;;;;;;11.80;99.90;;;;;;4923833;29;20028;-87
2022/10/20 13:15:48;;;;;;;;;;;11.80;99.90;;;;;;4923615;29;19989;-87
2022/10/20 13:18:24;;;;;;;;;;;11.70;99.90;;;;;;4923153;29;19981;-88
2022/10/20 13:20:53;;;;;;;;;;;11.70;99.90;;;;;;4923414;29;19931;-88
2022/10/20 13:23:21;;;;;;;;;;;11.70;99.90;;;;;;4925309;29;19926;-86
2022/10/20 13:25:51;;;;;;;;;;;11.70;99.90;;;;;;4942676;29;20046;-86
2022/10/20 13:28:19;;;;;;;;;;;11.70;99.90;;;;;;4943073;29;19935;-85
2022/10/20 13:30:47;;;;;;;;;;;11.60;99.90;;;;;;4924875;29;19930;-85
2022/10/20 13:33:31;;;;;;;;;;;11.60;99.90;;;;;;4940085;29;20021;-86
2022/10/20 13:36:12;;;;;;;;;;;11.60;99.90;;;;;;4924121;29;19927;-85
2022/10/20 13:38:46;;;;;;;;;;;11.60;99.90;;;;;;4939187;29;19926;-84
2022/10/20 13:41:12;;;;;;;;;;;11.60;99.90;;;;;;4923057;29;20375;-84
2022/10/20 13:43:45;;;;;;;;;;;11.60;99.90;;;;;;4923311;29;19934;-84
2022/10/20 13:46:10;;;;;;;;;;;11.50;99.90;;;;;;4922846;29;19973;-85
2022/10/20 13:48:39;;;;;;;;;;;11.50;99.90;;;;;;4922572;29;19966;-85
2022/10/20 13:51:09;;;;;;;;;;;11.50;99.90;;;;;;4938497;29;19930;-85
2022/10/20 13:53:37;;;;;;;;;;;11.50;99.90;;;;;;4922548;29;19926;-87
2022/10/20 13:56:14;;;;;;;;;;;11.50;99.90;;;;;;4922577;29;20026;-87
2022/10/20 13:58:41;;;;;;;;;;;11.50;99.90;;;;;;4922321;29;19974;-86
2022/10/20 14:01:12;;;;;;;;;;;11.50;99.90;;;;;;4922486;29;19926;-87
2022/10/20 14:03:45;;;;;;;;;;;11.40;99.90;;;;;;4938697;28;20345;-86
2022/10/20 14:06:26;;;;;;;;;;;11.40;99.90;;;;;;4926043;29;20421;-88
2022/10/20 14:08:52;;;;;;;;;;;11.40;99.90;;;;;;4942735;29;19926;-86
2022/10/20 14:11:17;;;;;;;;;;;11.40;99.90;;;;;;4925878;29;20318;-86
2022/10/20 14:13:43;;;;;;;;;;;11.40;99.90;;;;;;4941831;29;19927;-87
2022/10/20 14:16:15;;;;;;;;;;;11.40;99.90;;;;;;4926622;29;20029;-87
2022/10/20 14:18:41;;;;;;;;;;;11.40;99.90;;;;;;4941168;29;20445;-87
2022/10/20 14:21:14;;;;;;;;;;;11.40;99.90;;;;;;4941610;29;20017;-88
2022/10/20 14:23:43;;;;;;;;;;;11.40;99.90;;;;;;4941266;29;19950;-86
2022/10/20 14:26:13;;;;;;;;;;;11.40;99.90;;;;;;4925848;29;19927;-86
2022/10/20 14:28:40;;;;;;;;;;;11.40;99.90;;;;;;4925320;29;20363;-86
2022/10/20 14:31:07;;;;;;;;;;;11.40;99.90;;;;;;4941372;29;20370;-87
2022/10/20 14:33:33;;;;;;;;;;;11.40;99.90;;;;;;4926197;29;19933;-87